createdAt,value
2023-04-15T00:00:45.406Z,4.81
2023-04-15T00:01:48.180Z,4.17
2023-04-15T00:02:51.009Z,3.65
2023-04-15T00:03:54.480Z,3.83
2023-04-15T00:04:57.222Z,4.72
2023-04-15T00:05:59.897Z,6.16
2023-04-15T00:07:02.836Z,4.30
2023-04-15T00:08:05.837Z,4.28
2023-04-15T00:09:08.708Z,4.66
2023-04-15T00:10:11.586Z,5.82
2023-04-15T00:11:14.273Z,4.91
2023-04-15T00:12:17.027Z,2.48
2023-04-15T00:13:19.697Z,4.25
2023-04-15T00:14:22.376Z,5.07
2023-04-15T00:15:25.035Z,4.39
2023-04-15T00:16:27.764Z,3.75
2023-04-15T00:17:30.630Z,5.45
2023-04-15T00:18:33.464Z,5.02
2023-04-15T00:19:36.126Z,3.38
2023-04-15T00:20:39.105Z,3.60
2023-04-15T00:21:41.996Z,5.52
2023-04-15T00:22:44.759Z,5.87
2023-04-15T00:23:47.317Z,5.97
2023-04-15T00:24:50.095Z,3.77
2023-04-15T00:25:52.867Z,3.85
2023-04-15T00:26:55.642Z,4.40
2023-04-15T00:27:58.494Z,6.27
2023-04-15T00:29:01.301Z,4.56
2023-04-15T00:30:04.160Z,5.76
2023-04-15T00:31:07.076Z,3.78
2023-04-15T00:32:09.906Z,3.27
2023-04-15T00:33:12.582Z,4.33
2023-04-15T00:34:15.755Z,4.93
2023-04-15T00:35:18.427Z,3.85
2023-04-15T00:36:21.198Z,3.39
2023-04-15T00:37:23.868Z,4.03
2023-04-15T00:38:26.458Z,3.75
2023-04-15T00:39:29.213Z,2.63
2023-04-15T00:40:31.890Z,2.72
2023-04-15T00:41:34.648Z,3.68
2023-04-15T00:42:37.222Z,5.23
2023-04-15T00:43:40.105Z,4.62
2023-04-15T00:44:42.875Z,3.43
2023-04-15T00:45:45.551Z,2.35
2023-04-15T00:46:48.213Z,2.39
2023-04-15T00:47:51.019Z,2.98
2023-04-15T00:48:53.852Z,3.27
2023-04-15T00:49:56.519Z,4.45
2023-04-15T00:50:59.195Z,3.44
2023-04-15T00:52:01.861Z,2.29
2023-04-15T00:53:04.531Z,3.66
2023-04-15T00:54:07.308Z,4.82
2023-04-15T00:55:09.999Z,3.99
2023-04-15T00:56:12.737Z,3.95
2023-04-15T00:57:15.315Z,2.93
2023-04-15T00:58:17.988Z,4.43
2023-04-15T00:59:20.551Z,4.28
2023-04-15T01:00:23.121Z,4.57
2023-04-15T01:01:25.806Z,4.25
2023-04-15T01:02:28.590Z,4.51
2023-04-15T01:03:31.553Z,4.30
2023-04-15T01:04:34.274Z,4.20
2023-04-15T01:05:37.011Z,4.76
2023-04-15T01:06:39.750Z,4.01
2023-04-15T01:07:42.420Z,3.23
2023-04-15T01:08:44.890Z,5.12
2023-04-15T01:09:47.452Z,4.89
2023-04-15T01:10:50.153Z,3.69
2023-04-15T01:11:52.692Z,2.67
2023-04-15T01:12:55.564Z,4.12
2023-04-15T01:13:58.337Z,3.34
2023-04-15T01:15:00.907Z,3.31
2023-04-15T01:16:03.603Z,3.35
2023-04-15T01:17:06.246Z,4.01
2023-04-15T01:18:08.808Z,4.55
2023-04-15T01:19:11.484Z,5.03
2023-04-15T01:20:16.511Z,4.33
2023-04-15T01:21:19.291Z,3.37
2023-04-15T01:22:22.260Z,3.11
2023-04-15T01:23:25.340Z,3.38
2023-04-15T01:24:27.909Z,2.15
2023-04-15T01:25:30.985Z,3.77
2023-04-15T01:26:33.663Z,3.60
2023-04-15T01:27:36.332Z,3.09
2023-04-15T01:28:39.415Z,3.59
2023-04-15T01:29:42.186Z,2.25
2023-04-15T01:30:45.061Z,2.33
2023-04-15T01:31:47.998Z,2.22
2023-04-15T01:32:50.630Z,3.74
2023-04-15T01:33:53.572Z,3.58
2023-04-15T01:34:56.239Z,3.53
2023-04-15T01:35:59.215Z,3.47
2023-04-15T01:38:17.969Z,4.66
2023-04-15T01:39:20.844Z,4.58
2023-04-15T01:42:56.200Z,3.76
2023-04-15T01:43:58.970Z,5.58
2023-04-15T01:45:01.676Z,2.99
2023-04-15T01:46:04.231Z,2.45
2023-04-15T01:47:06.979Z,3.88
2023-04-15T01:48:09.550Z,2.95
2023-04-15T01:49:12.118Z,2.94
2023-04-15T01:50:15.097Z,2.58
2023-04-15T01:51:17.785Z,3.45
2023-04-15T01:52:20.330Z,3.28
2023-04-15T01:53:23.410Z,3.15
2023-04-15T01:54:26.391Z,2.53
2023-04-15T01:55:29.056Z,3.02
2023-04-15T01:56:31.840Z,2.55
2023-04-15T01:57:34.500Z,3.15
2023-04-15T01:58:37.376Z,2.91
2023-04-15T01:59:39.964Z,2.64
2023-04-15T02:00:42.681Z,2.77
2023-04-15T02:01:45.337Z,3.27
2023-04-15T02:02:48.006Z,4.01
2023-04-15T02:03:50.735Z,3.14
2023-04-15T02:04:53.398Z,4.29
2023-04-15T02:05:55.968Z,3.15
2023-04-15T02:06:58.550Z,1.80
2023-04-15T02:08:01.109Z,2.95
2023-04-15T02:09:03.755Z,3.18
2023-04-15T02:10:13.062Z,2.77
2023-04-15T02:11:15.666Z,2.56
2023-04-15T02:12:18.331Z,3.42
2023-04-15T02:13:21.015Z,3.27
2023-04-15T02:14:23.886Z,2.83
2023-04-15T02:15:26.752Z,4.18
2023-04-15T02:16:29.844Z,4.10
2023-04-15T02:17:32.720Z,4.97
2023-04-15T02:18:35.578Z,2.97
2023-04-15T02:19:38.459Z,2.42
2023-04-15T02:20:41.436Z,2.75
2023-04-15T02:21:44.509Z,4.27
2023-04-15T02:22:47.283Z,4.45
2023-04-15T02:23:50.590Z,2.73
2023-04-15T02:24:53.236Z,2.98
2023-04-15T02:25:56.117Z,2.73
2023-04-15T02:26:58.995Z,2.84
2023-04-15T02:28:01.965Z,2.98
2023-04-15T02:29:04.535Z,2.67
2023-04-15T02:30:07.241Z,2.43
2023-04-15T02:31:09.972Z,2.96
2023-04-15T02:32:13.231Z,1.92
2023-04-15T02:33:16.134Z,2.60
2023-04-15T02:34:19.008Z,2.62
2023-04-15T02:35:21.777Z,2.57
2023-04-15T02:36:24.657Z,3.97
2023-04-15T02:37:27.841Z,4.09
2023-04-15T02:38:30.431Z,3.60
2023-04-15T02:39:32.972Z,4.99
2023-04-15T02:40:35.641Z,6.45
2023-04-15T02:41:38.205Z,4.52
2023-04-15T02:42:40.977Z,5.86
2023-04-15T02:43:43.650Z,5.00
2023-04-15T02:44:46.333Z,4.73
2023-04-15T02:45:48.942Z,6.09
2023-04-15T02:46:51.667Z,3.32
2023-04-15T02:47:54.778Z,3.37
2023-04-15T02:48:57.410Z,3.28
2023-04-15T02:49:59.987Z,5.58
2023-04-15T02:51:02.646Z,2.52
2023-04-15T02:52:05.213Z,2.68
2023-04-15T02:53:08.192Z,2.47
2023-04-15T02:54:10.860Z,2.92
2023-04-15T02:55:13.557Z,2.38
2023-04-15T02:56:16.003Z,2.77
2023-04-15T02:57:18.661Z,4.58
2023-04-15T02:58:21.327Z,2.42
2023-04-15T02:59:24.001Z,2.61
2023-04-15T03:00:26.669Z,2.07
2023-04-15T03:01:29.494Z,2.63
2023-04-15T03:02:32.463Z,3.81
2023-04-15T03:03:35.577Z,3.78
2023-04-15T03:04:38.792Z,2.52
2023-04-15T03:05:41.762Z,4.31
2023-04-15T03:06:44.543Z,3.35
2023-04-15T03:07:47.405Z,2.92
2023-04-15T03:08:50.592Z,3.12
2023-04-15T03:09:53.359Z,4.25
2023-04-15T03:10:56.251Z,5.09
2023-04-15T03:11:59.007Z,6.08
2023-04-15T03:13:01.783Z,5.45
2023-04-15T03:14:04.348Z,5.13
2023-04-15T03:15:06.916Z,4.03
2023-04-15T03:16:09.648Z,6.18
2023-04-15T03:17:12.257Z,6.42
2023-04-15T03:18:14.925Z,8.50
2023-04-15T03:19:17.602Z,7.10
2023-04-15T03:20:20.363Z,6.61
2023-04-15T03:21:22.945Z,8.18
2023-04-15T03:22:25.826Z,6.87
2023-04-15T03:23:28.585Z,6.97
2023-04-15T03:24:31.556Z,5.82
2023-04-15T03:25:34.435Z,7.52
2023-04-15T03:26:37.315Z,5.59
2023-04-15T03:27:40.183Z,7.02
2023-04-15T03:28:43.065Z,6.45
2023-04-15T03:29:45.729Z,5.59
2023-04-15T03:30:48.613Z,6.43
2023-04-15T03:31:51.481Z,6.12
2023-04-15T03:32:54.369Z,5.42
2023-04-15T03:33:57.335Z,7.66
2023-04-15T03:35:00.411Z,6.41
2023-04-15T03:36:03.178Z,7.77
2023-04-15T03:37:05.958Z,7.91
2023-04-15T03:38:08.940Z,7.57
2023-04-15T03:39:11.804Z,6.45
2023-04-15T03:40:14.913Z,7.50
2023-04-15T03:41:17.677Z,8.84
2023-04-15T03:42:20.530Z,5.53
2023-04-15T03:43:23.401Z,6.44
2023-04-15T03:44:26.178Z,5.83
2023-04-15T03:45:29.156Z,5.60
2023-04-15T03:46:31.741Z,8.16
2023-04-15T03:47:34.626Z,8.97
2023-04-15T03:48:37.368Z,8.03
2023-04-15T03:49:40.044Z,8.80
2023-04-15T03:50:43.021Z,7.23
2023-04-15T03:51:45.740Z,9.39
2023-04-15T03:52:51.834Z,7.48
2023-04-15T03:53:54.774Z,8.61
2023-04-15T03:54:57.603Z,8.31
2023-04-15T03:56:00.673Z,9.01
2023-04-15T03:57:03.448Z,8.37
2023-04-15T03:58:06.314Z,6.99
2023-04-15T03:59:09.196Z,7.11
2023-04-15T04:00:12.091Z,7.78
2023-04-15T04:01:15.044Z,5.70
2023-04-15T04:02:17.954Z,6.92
2023-04-15T04:03:21.590Z,7.41
2023-04-15T04:04:24.553Z,7.36
2023-04-15T04:05:27.364Z,7.46
2023-04-15T04:06:30.227Z,8.51
2023-04-15T04:07:33.111Z,6.88
2023-04-15T04:08:37.785Z,5.96
2023-04-15T04:09:40.613Z,5.54
2023-04-15T04:10:43.378Z,5.59
2023-04-15T04:11:46.454Z,5.18
2023-04-15T04:12:50.353Z,7.71
2023-04-15T04:13:53.220Z,6.88
2023-04-15T04:14:56.199Z,6.68
2023-04-15T04:15:59.164Z,9.57
2023-04-15T04:17:02.095Z,5.93
2023-04-15T04:18:05.033Z,6.64
2023-04-15T04:19:07.909Z,7.26
2023-04-15T04:20:10.347Z,6.82
2023-04-15T04:21:12.827Z,7.85
2023-04-15T04:22:15.722Z,7.46
2023-04-15T04:23:18.382Z,10.09
2023-04-15T04:24:20.945Z,6.60
2023-04-15T04:25:23.616Z,5.68
2023-04-15T04:26:26.493Z,6.82
2023-04-15T04:27:29.469Z,5.36
2023-04-15T04:28:32.357Z,7.52
2023-04-15T04:29:35.227Z,5.80
2023-04-15T04:30:37.989Z,7.65
2023-04-15T04:31:40.826Z,7.37
2023-04-15T04:32:43.997Z,6.54
2023-04-15T04:33:46.814Z,7.21
2023-04-15T04:34:49.689Z,7.94
2023-04-15T04:35:52.667Z,6.70
2023-04-15T04:36:55.555Z,6.23
2023-04-15T04:37:58.522Z,8.35
2023-04-15T04:39:01.558Z,9.65
2023-04-15T04:40:04.633Z,5.68
2023-04-15T04:41:07.553Z,8.37
2023-04-15T04:42:10.425Z,6.52
2023-04-15T04:43:13.507Z,7.37
2023-04-15T04:44:16.386Z,8.55
2023-04-15T04:45:19.257Z,6.75
2023-04-15T04:46:22.274Z,8.63
2023-04-15T04:47:25.138Z,13.90
2023-04-15T04:48:28.286Z,9.35
2023-04-15T04:49:31.164Z,7.71
2023-04-15T04:50:37.286Z,5.81
2023-04-15T04:51:39.991Z,7.99
2023-04-15T04:52:42.860Z,12.31
2023-04-15T04:53:46.038Z,7.25
2023-04-15T04:54:48.606Z,6.15
2023-04-15T04:55:51.378Z,8.22
2023-04-15T04:56:54.041Z,7.52
2023-04-15T04:57:56.714Z,8.21
2023-04-15T04:58:59.768Z,9.31
2023-04-15T05:00:02.485Z,6.10
2023-04-15T05:01:05.080Z,6.65
2023-04-15T05:02:07.773Z,7.19
2023-04-15T05:03:10.620Z,7.12
2023-04-15T05:04:13.597Z,8.35
2023-04-15T05:05:16.339Z,8.65
2023-04-15T05:06:18.996Z,7.18
2023-04-15T05:07:21.670Z,9.06
2023-04-15T05:08:24.236Z,6.22
2023-04-15T05:09:27.216Z,8.06
2023-04-15T05:10:29.934Z,8.05
2023-04-15T05:11:32.757Z,6.24
2023-04-15T05:12:35.442Z,7.44
2023-04-15T05:13:38.100Z,6.25
2023-04-15T05:14:40.878Z,7.65
2023-04-15T05:15:43.504Z,7.58
2023-04-15T05:16:46.114Z,7.67
2023-04-15T05:17:48.822Z,9.34
2023-04-15T05:18:59.550Z,6.14
2023-04-15T05:20:02.238Z,6.85
2023-04-15T05:21:04.898Z,7.92
2023-04-15T05:22:07.550Z,7.45
2023-04-15T05:23:10.125Z,5.87
2023-04-15T05:24:12.788Z,6.99
2023-04-15T05:25:15.462Z,7.88
2023-04-15T05:26:18.023Z,6.62
2023-04-15T05:27:20.706Z,9.91
2023-04-15T05:28:23.369Z,5.82
2023-04-15T05:29:26.030Z,7.10
2023-04-15T05:30:28.910Z,7.32
2023-04-15T05:31:31.606Z,5.92
2023-04-15T05:32:34.486Z,6.54
2023-04-15T05:33:37.333Z,6.65
2023-04-15T05:34:40.143Z,6.66
2023-04-15T05:35:43.080Z,7.35
2023-04-15T05:36:46.057Z,9.70
2023-04-15T05:37:49.035Z,8.57
2023-04-15T05:38:52.309Z,9.05
2023-04-15T05:39:55.393Z,6.82
2023-04-15T05:40:58.271Z,7.64
2023-04-15T05:42:01.549Z,8.59
2023-04-15T05:43:05.054Z,8.38
2023-04-15T05:44:08.221Z,9.46
2023-04-15T05:45:11.212Z,8.72
2023-04-15T05:46:14.162Z,7.91
2023-04-15T05:47:17.008Z,9.46
2023-04-15T05:48:20.345Z,8.34
2023-04-15T05:49:23.314Z,8.35
2023-04-15T05:50:26.700Z,7.16
2023-04-15T05:51:29.571Z,7.41
2023-04-15T05:52:32.253Z,9.69
2023-04-15T05:53:34.922Z,11.93
2023-04-15T05:54:37.590Z,10.05
2023-04-15T05:55:40.157Z,9.66
2023-04-15T05:56:42.834Z,10.46
2023-04-15T05:57:45.390Z,8.46
2023-04-15T05:58:54.599Z,8.73
2023-04-15T05:59:57.191Z,9.13
2023-04-15T06:00:59.860Z,9.90
2023-04-15T06:02:03.042Z,8.73
2023-04-15T06:03:06.109Z,9.39
2023-04-15T06:04:09.055Z,10.33
2023-04-15T06:05:11.923Z,8.76
2023-04-15T06:06:14.644Z,10.87
2023-04-15T06:07:17.516Z,7.75
2023-04-15T06:08:20.287Z,11.95
2023-04-15T06:09:23.568Z,9.95
2023-04-15T06:10:26.457Z,10.49
2023-04-15T06:11:29.010Z,10.65
2023-04-15T06:12:31.582Z,12.89
2023-04-15T06:13:34.247Z,12.52
2023-04-15T06:14:36.923Z,10.33
2023-04-15T06:15:40.001Z,9.89
2023-04-15T06:16:42.807Z,9.78
2023-04-15T06:17:45.680Z,9.55
2023-04-15T06:18:48.620Z,8.87
2023-04-15T06:19:51.502Z,8.22
2023-04-15T06:20:54.803Z,11.15
2023-04-15T06:21:57.556Z,10.72
2023-04-15T06:23:00.446Z,9.58
2023-04-15T06:24:06.576Z,11.80
2023-04-15T06:25:11.271Z,10.61
2023-04-15T06:26:14.286Z,9.97
2023-04-15T06:27:17.053Z,10.01
2023-04-15T06:28:19.926Z,12.80
2023-04-15T06:29:23.313Z,10.21
2023-04-15T06:30:25.883Z,12.18
2023-04-15T06:31:28.696Z,9.15
2023-04-15T06:32:32.062Z,11.63
2023-04-15T06:33:34.812Z,9.49
2023-04-15T06:34:37.684Z,9.15
2023-04-15T06:35:40.579Z,10.22
2023-04-15T06:36:43.375Z,10.76
2023-04-15T06:37:46.508Z,11.28
2023-04-15T06:38:49.489Z,10.05
2023-04-15T06:39:52.265Z,10.06
2023-04-15T06:40:55.631Z,9.66
2023-04-15T06:41:58.428Z,11.35
2023-04-15T06:43:01.097Z,9.39
2023-04-15T06:44:06.280Z,11.37
2023-04-15T06:45:08.899Z,11.49
2023-04-15T06:46:11.899Z,12.38
2023-04-15T06:47:14.645Z,12.38
2023-04-15T06:48:17.702Z,12.91
2023-04-15T06:49:20.494Z,13.23
2023-04-15T06:50:23.060Z,11.15
2023-04-15T06:51:26.829Z,14.22
2023-04-15T06:52:30.126Z,15.59
2023-04-15T06:53:32.922Z,11.68
2023-04-15T06:54:36.118Z,11.55
2023-04-15T06:55:38.986Z,12.38
2023-04-15T06:56:41.836Z,13.48
2023-04-15T06:57:44.722Z,12.35
2023-04-15T06:58:47.584Z,12.37
2023-04-15T06:59:50.456Z,12.25
2023-04-15T07:00:53.762Z,14.83
2023-04-15T07:01:57.005Z,15.02
2023-04-15T07:02:59.955Z,13.79
2023-04-15T07:04:02.928Z,12.03
2023-04-15T07:05:06.156Z,13.76
2023-04-15T07:06:09.369Z,13.74
2023-04-15T07:07:14.030Z,11.41
2023-04-15T07:08:17.160Z,15.23
2023-04-15T07:09:20.413Z,14.48
2023-04-15T07:10:24.563Z,13.46
2023-04-15T07:11:27.716Z,15.64
2023-04-15T07:12:30.493Z,14.64
2023-04-15T07:13:33.256Z,11.90
2023-04-15T07:14:36.346Z,14.89
2023-04-15T07:15:39.612Z,12.78
2023-04-15T07:16:42.823Z,16.47
2023-04-15T07:17:46.211Z,18.18
2023-04-15T07:18:49.071Z,18.19
2023-04-15T07:19:51.732Z,19.66
2023-04-15T07:20:54.720Z,15.81
2023-04-15T07:21:57.683Z,18.18
2023-04-15T07:23:00.469Z,15.50
2023-04-15T07:24:03.434Z,18.26
2023-04-15T07:25:06.008Z,16.03
2023-04-15T07:26:08.993Z,15.10
2023-04-15T07:27:11.556Z,18.87
2023-04-15T07:28:14.325Z,19.66
2023-04-15T07:29:17.198Z,16.46
2023-04-15T07:30:19.992Z,14.30
2023-04-15T07:31:22.889Z,13.81
2023-04-15T07:32:25.540Z,12.85
2023-04-15T07:33:28.683Z,14.54
2023-04-15T07:34:33.407Z,17.72
2023-04-15T07:35:36.187Z,11.31
2023-04-15T07:36:39.053Z,14.64
2023-04-15T07:37:41.939Z,13.09
2023-04-15T07:38:44.627Z,10.47
2023-04-15T07:39:47.679Z,14.58
2023-04-15T07:40:50.859Z,10.70
2023-04-15T07:41:53.739Z,13.75
2023-04-15T07:42:56.412Z,15.92
2023-04-15T07:43:59.388Z,17.04
2023-04-15T07:45:02.588Z,15.33
2023-04-15T07:46:05.482Z,16.51
2023-04-15T07:47:08.228Z,14.97
2023-04-15T07:48:10.905Z,15.45
2023-04-15T07:49:13.564Z,19.29
2023-04-15T07:50:16.145Z,13.68
2023-04-15T07:51:18.710Z,14.52
2023-04-15T07:52:21.479Z,12.95
2023-04-15T07:53:24.151Z,15.71
2023-04-15T07:54:26.913Z,15.41
2023-04-15T07:55:30.179Z,13.58
2023-04-15T07:56:33.480Z,13.11
2023-04-15T07:57:36.448Z,13.75
2023-04-15T07:58:39.733Z,13.41
2023-04-15T07:59:43.016Z,16.22
2023-04-15T08:00:45.795Z,16.37
2023-04-15T08:01:48.683Z,12.67
2023-04-15T08:02:51.619Z,14.96
2023-04-15T08:03:54.897Z,13.55
2023-04-15T08:04:58.058Z,11.03
2023-04-15T08:06:01.077Z,15.54
2023-04-15T08:07:04.082Z,13.99
2023-04-15T08:08:06.846Z,11.80
2023-04-15T08:09:09.914Z,15.91
2023-04-15T08:10:12.919Z,15.61
2023-04-15T08:11:15.774Z,14.52
2023-04-15T08:12:18.759Z,14.86
2023-04-15T08:13:22.020Z,13.40
2023-04-15T08:14:24.820Z,11.40
2023-04-15T08:15:27.477Z,13.38
2023-04-15T08:16:30.520Z,14.14
2023-04-15T08:17:33.601Z,12.61
2023-04-15T08:18:37.011Z,8.87
2023-04-15T08:19:39.981Z,10.15
2023-04-15T08:20:43.170Z,11.44
2023-04-15T08:21:45.953Z,11.53
2023-04-15T08:22:49.113Z,11.48
2023-04-15T08:23:51.702Z,12.19
2023-04-15T08:24:54.569Z,10.43
2023-04-15T08:25:57.246Z,9.70
2023-04-15T08:26:59.944Z,10.70
2023-04-15T08:28:03.089Z,10.32
2023-04-15T08:29:06.598Z,10.37
2023-04-15T08:30:09.877Z,11.13
2023-04-15T08:31:13.064Z,11.29
2023-04-15T08:32:16.418Z,8.96
2023-04-15T08:33:19.811Z,10.23
2023-04-15T08:34:22.815Z,10.31
2023-04-15T08:35:26.174Z,12.41
2023-04-15T08:36:30.394Z,12.20
2023-04-15T08:37:33.467Z,12.16
2023-04-15T08:38:40.133Z,14.39
2023-04-15T08:39:43.404Z,11.06
2023-04-15T08:40:46.202Z,11.00
2023-04-15T08:41:49.476Z,7.72
2023-04-15T08:42:52.553Z,10.43
2023-04-15T08:43:55.901Z,11.78
2023-04-15T08:44:58.621Z,12.86
2023-04-15T08:46:01.883Z,8.83
2023-04-15T08:47:04.898Z,11.49
2023-04-15T08:48:08.254Z,11.42
2023-04-15T08:49:11.352Z,10.65
2023-04-15T08:50:15.833Z,10.47
2023-04-15T08:51:18.930Z,12.07
2023-04-15T08:52:21.712Z,9.45
2023-04-15T08:53:24.578Z,12.15
2023-04-15T08:54:27.768Z,11.95
2023-04-15T08:55:30.950Z,11.84
2023-04-15T08:56:33.844Z,9.44
2023-04-15T08:57:36.781Z,12.23
2023-04-15T08:58:39.659Z,11.99
2023-04-15T08:59:43.157Z,8.54
2023-04-15T09:00:46.295Z,12.02
2023-04-15T09:01:49.134Z,11.74
2023-04-15T09:02:52.001Z,13.81
2023-04-15T09:03:55.340Z,15.64
2023-04-15T09:04:58.653Z,12.75
2023-04-15T09:06:01.658Z,11.76
2023-04-15T09:07:04.848Z,9.78
2023-04-15T09:08:07.628Z,13.88
2023-04-15T09:09:10.262Z,13.98
2023-04-15T09:10:13.739Z,10.60
2023-04-15T09:11:17.837Z,11.89
2023-04-15T09:12:22.585Z,13.19
2023-04-15T09:13:25.459Z,17.16
2023-04-15T09:14:28.614Z,15.98
2023-04-15T09:15:31.722Z,17.29
2023-04-15T09:16:34.727Z,14.86
2023-04-15T09:17:37.722Z,15.23
2023-04-15T09:18:40.965Z,12.17
2023-04-15T09:19:44.324Z,13.64
2023-04-15T09:20:52.913Z,11.26
2023-04-15T09:21:58.428Z,13.19
2023-04-15T09:23:00.233Z,14.76
2023-04-15T09:24:03.381Z,16.58
2023-04-15T09:25:06.388Z,12.62
2023-04-15T09:26:10.277Z,14.62
2023-04-15T09:27:13.172Z,13.47
2023-04-15T09:28:17.454Z,18.80
2023-04-15T09:29:20.468Z,13.58
2023-04-15T09:30:23.623Z,12.37
2023-04-15T09:31:27.137Z,13.83
2023-04-15T09:32:29.936Z,12.60
2023-04-15T09:33:32.565Z,14.88
2023-04-15T09:34:35.334Z,13.09
2023-04-15T09:35:40.771Z,12.53
2023-04-15T09:36:43.851Z,13.94
2023-04-15T09:37:46.602Z,10.63
2023-04-15T09:38:49.373Z,11.65
2023-04-15T09:39:51.962Z,16.10
2023-04-15T09:40:54.536Z,13.72
2023-04-15T09:41:57.377Z,9.77
2023-04-15T09:43:00.064Z,11.78
2023-04-15T09:44:03.136Z,12.66
2023-04-15T09:45:06.028Z,12.02
2023-04-15T09:46:09.117Z,11.14
2023-04-15T09:47:11.989Z,11.13
2023-04-15T09:48:20.655Z,14.00
2023-04-15T09:49:23.454Z,11.97
2023-04-15T09:50:26.414Z,10.90
2023-04-15T09:51:29.213Z,12.78
2023-04-15T09:52:32.496Z,14.23
2023-04-15T09:53:35.755Z,10.82
2023-04-15T09:54:38.890Z,14.12
2023-04-15T09:55:42.030Z,10.53
2023-04-15T09:56:44.920Z,10.71
2023-04-15T09:57:48.074Z,10.69
2023-04-15T09:58:51.320Z,11.48
2023-04-15T09:59:54.183Z,7.66
2023-04-15T10:00:57.584Z,12.84
2023-04-15T10:02:00.344Z,11.29
2023-04-15T10:03:03.412Z,12.55
2023-04-15T10:04:06.726Z,13.22
2023-04-15T10:05:09.957Z,9.49
2023-04-15T10:06:14.276Z,8.48
2023-04-15T10:07:17.447Z,8.74
2023-04-15T10:08:20.700Z,10.55
2023-04-15T10:09:23.712Z,11.01
2023-04-15T10:10:26.784Z,10.07
2023-04-15T10:11:31.574Z,10.61
2023-04-15T10:12:34.372Z,13.65
2023-04-15T10:13:38.877Z,11.10
2023-04-15T10:14:41.958Z,9.66
2023-04-15T10:15:45.201Z,8.68
2023-04-15T10:16:51.298Z,9.66
2023-04-15T10:17:53.908Z,9.54
2023-04-15T10:18:57.257Z,9.37
2023-04-15T10:20:00.227Z,10.94
2023-04-15T10:21:03.408Z,14.62
2023-04-15T10:22:06.704Z,9.42
2023-04-15T10:23:12.178Z,9.52
2023-04-15T10:24:14.531Z,13.40
2023-04-15T10:25:17.772Z,12.98
2023-04-15T10:26:20.646Z,11.48
2023-04-15T10:27:23.624Z,12.82
2023-04-15T10:28:26.495Z,9.54
2023-04-15T10:29:29.788Z,10.05
2023-04-15T10:30:32.789Z,12.36
2023-04-15T10:31:35.820Z,9.14
2023-04-15T10:32:38.670Z,10.39
2023-04-15T10:33:41.694Z,9.37
2023-04-15T10:34:44.774Z,11.89
2023-04-15T10:35:47.786Z,10.41
2023-04-15T10:36:50.537Z,12.24
2023-04-15T10:37:53.599Z,10.95
2023-04-15T10:38:56.499Z,12.19
2023-04-15T10:39:59.471Z,11.08
2023-04-15T10:41:03.351Z,16.65
2023-04-15T10:42:06.125Z,11.40
2023-04-15T10:43:08.708Z,12.48
2023-04-15T10:44:11.389Z,11.92
2023-04-15T10:45:14.006Z,11.50
2023-04-15T10:46:16.644Z,13.55
2023-04-15T10:47:19.182Z,12.33
2023-04-15T10:48:21.870Z,11.23
2023-04-15T10:49:24.701Z,10.67
2023-04-15T10:50:27.580Z,11.50
2023-04-15T10:51:30.283Z,10.52
2023-04-15T10:52:32.957Z,12.68
2023-04-15T10:53:35.797Z,12.35
2023-04-15T10:54:38.477Z,11.02
2023-04-15T10:55:41.260Z,11.45
2023-04-15T10:56:43.943Z,12.61
2023-04-15T10:57:47.004Z,15.13
2023-04-15T10:58:50.173Z,13.62
2023-04-15T10:59:53.067Z,12.32
2023-04-15T11:00:57.580Z,13.03
2023-04-15T11:02:00.699Z,11.41
2023-04-15T11:03:03.811Z,11.89
2023-04-15T11:04:07.448Z,11.08
2023-04-15T11:05:11.348Z,10.79
2023-04-15T11:06:14.411Z,10.32
2023-04-15T11:07:19.135Z,9.93
2023-04-15T11:08:21.877Z,9.18
2023-04-15T11:09:24.579Z,11.50
2023-04-15T11:10:27.317Z,11.11
2023-04-15T11:11:30.391Z,7.35
2023-04-15T11:12:33.372Z,10.38
2023-04-15T11:13:36.453Z,9.86
2023-04-15T11:14:39.651Z,9.85
2023-04-15T11:15:42.545Z,6.93
2023-04-15T11:16:47.068Z,8.02
2023-04-15T11:17:49.834Z,10.76
2023-04-15T11:18:52.494Z,8.06
2023-04-15T11:19:55.551Z,10.89
2023-04-15T11:20:58.725Z,10.17
2023-04-15T11:22:02.134Z,9.11
2023-04-15T11:23:14.166Z,9.31
2023-04-15T11:24:11.153Z,9.89
2023-04-15T11:25:14.332Z,7.26
2023-04-15T11:26:17.347Z,8.01
2023-04-15T11:27:23.082Z,6.49
2023-04-15T11:28:28.154Z,8.51
2023-04-15T11:29:30.842Z,8.33
2023-04-15T11:30:33.323Z,10.42
2023-04-15T11:31:36.024Z,9.66
2023-04-15T11:32:39.101Z,9.15
2023-04-15T11:33:41.920Z,9.32
2023-04-15T11:34:46.081Z,7.99
2023-04-15T11:35:51.360Z,7.72
2023-04-15T11:36:55.668Z,9.28
2023-04-15T11:37:58.334Z,9.24
2023-04-15T11:39:01.222Z,8.01
2023-04-15T11:40:03.778Z,8.00
2023-04-15T11:41:06.551Z,9.22
2023-04-15T11:42:09.337Z,8.08
2023-04-15T11:43:12.522Z,7.92
2023-04-15T11:44:15.597Z,7.78
2023-04-15T11:45:18.872Z,5.56
2023-04-15T11:46:22.066Z,9.29
2023-04-15T11:47:25.111Z,9.65
2023-04-15T11:48:30.903Z,9.42
2023-04-15T11:49:33.889Z,8.16
2023-04-15T11:50:36.935Z,9.55
2023-04-15T11:51:39.846Z,9.33
2023-04-15T11:52:42.787Z,11.92
2023-04-15T11:53:46.260Z,7.61
2023-04-15T11:54:49.360Z,6.94
2023-04-15T11:55:52.537Z,7.82
2023-04-15T11:56:55.508Z,8.75
2023-04-15T11:57:58.481Z,7.78
2023-04-15T11:59:01.789Z,8.14
2023-04-15T12:00:05.057Z,8.81
2023-04-15T12:01:08.146Z,9.05
2023-04-15T12:02:11.367Z,9.57
2023-04-15T12:03:14.612Z,8.72
2023-04-15T12:04:18.334Z,8.00
2023-04-15T12:05:22.284Z,10.13
2023-04-15T12:06:25.072Z,6.78
2023-04-15T12:07:27.952Z,9.47
2023-04-15T12:08:30.611Z,8.46
2023-04-15T12:09:33.790Z,8.89
2023-04-15T12:10:36.936Z,10.20
2023-04-15T12:11:39.964Z,6.16
2023-04-15T12:12:42.927Z,10.18
2023-04-15T12:13:46.014Z,8.44
2023-04-15T12:14:49.293Z,9.53
2023-04-15T12:15:52.324Z,13.39
2023-04-15T12:16:58.536Z,9.20
2023-04-15T12:18:00.857Z,7.54
2023-04-15T12:19:04.993Z,7.22
2023-04-15T12:20:08.181Z,7.92
2023-04-15T12:21:11.265Z,8.41
2023-04-15T12:22:14.126Z,6.96
2023-04-15T12:23:16.790Z,6.19
2023-04-15T12:24:19.573Z,7.55
2023-04-15T12:25:25.622Z,7.08
2023-04-15T12:26:28.495Z,9.76
2023-04-15T12:27:31.320Z,7.06
2023-04-15T12:28:35.259Z,6.68
2023-04-15T12:29:38.370Z,6.86
2023-04-15T12:30:41.632Z,9.12
2023-04-15T12:31:44.674Z,8.60
2023-04-15T12:32:47.932Z,9.33
2023-04-15T12:33:51.086Z,9.15
2023-04-15T12:34:54.058Z,9.58
2023-04-15T12:35:57.336Z,8.78
2023-04-15T12:37:00.836Z,6.64
2023-04-15T12:38:03.902Z,7.05
2023-04-15T12:39:07.193Z,9.98
2023-04-15T12:40:10.274Z,8.09
2023-04-15T12:41:13.659Z,7.78
2023-04-15T12:42:16.848Z,8.91
2023-04-15T12:43:19.914Z,6.21
2023-04-15T12:44:23.103Z,5.42
2023-04-15T12:45:27.130Z,5.36
2023-04-15T12:46:31.144Z,7.59
2023-04-15T12:47:34.007Z,7.96
2023-04-15T12:48:37.157Z,7.28
2023-04-15T12:49:39.966Z,10.13
2023-04-15T12:50:42.809Z,7.46
2023-04-15T12:51:45.884Z,9.68
2023-04-15T12:52:48.554Z,8.40
2023-04-15T12:53:53.270Z,7.31
2023-04-15T12:54:55.993Z,7.33
2023-04-15T12:55:58.493Z,8.54
2023-04-15T12:57:01.295Z,6.98
2023-04-15T12:58:04.177Z,9.18
2023-04-15T12:59:07.242Z,6.82
2023-04-15T13:00:10.225Z,5.32
2023-04-15T13:01:13.300Z,5.58
2023-04-15T13:02:16.820Z,6.00
2023-04-15T13:03:20.052Z,8.04
2023-04-15T13:04:23.511Z,10.32
2023-04-15T13:05:28.435Z,6.08
2023-04-15T13:06:31.363Z,6.24
2023-04-15T13:07:34.434Z,6.95
2023-04-15T13:08:40.449Z,9.27
2023-04-15T13:09:41.818Z,8.14
2023-04-15T13:10:44.998Z,6.42
2023-04-15T13:11:48.086Z,6.85
2023-04-15T13:12:51.254Z,7.08
2023-04-15T13:13:54.339Z,4.38
2023-04-15T13:14:58.705Z,5.68
2023-04-15T13:16:01.707Z,5.26
2023-04-15T13:17:04.702Z,5.74
2023-04-15T13:18:07.826Z,6.21
2023-04-15T13:19:10.761Z,6.62
2023-04-15T13:20:13.850Z,7.92
2023-04-15T13:21:16.818Z,6.59
2023-04-15T13:22:19.696Z,7.39
2023-04-15T13:23:23.075Z,6.06
2023-04-15T13:24:26.052Z,5.19
2023-04-15T13:25:28.742Z,9.03
2023-04-15T13:26:31.509Z,5.46
2023-04-15T13:27:34.684Z,6.46
2023-04-15T13:28:37.803Z,4.61
2023-04-15T13:29:40.734Z,4.25
2023-04-15T13:30:43.513Z,4.30
2023-04-15T13:31:46.631Z,7.72
2023-04-15T13:32:50.738Z,5.05
2023-04-15T13:33:54.103Z,5.02
2023-04-15T13:34:57.053Z,4.56
2023-04-15T13:36:00.129Z,6.02
2023-04-15T13:37:03.320Z,7.16
2023-04-15T13:38:06.298Z,6.76
2023-04-15T13:39:09.276Z,6.64
2023-04-15T13:40:12.554Z,5.65
2023-04-15T13:41:15.337Z,6.96
2023-04-15T13:42:18.199Z,6.92
2023-04-15T13:43:21.072Z,5.43
2023-04-15T13:44:23.963Z,5.08
2023-04-15T13:45:26.731Z,4.95
2023-04-15T13:46:29.394Z,5.83
2023-04-15T13:47:32.190Z,5.89
2023-04-15T13:48:34.937Z,6.59
2023-04-15T13:49:38.432Z,6.43
2023-04-15T13:50:41.698Z,5.86
2023-04-15T13:51:44.589Z,4.65
2023-04-15T13:52:47.355Z,7.48
2023-04-15T13:53:50.129Z,6.51